Time;durP1;ratioP1;P1;durP2;ratioP2;P2;SDS_P1;SDS_P2;PMS_P1;PMS_P2;Temp;Humidity;BMP_temperature;BMP_pressure;BME280_temperature;BME280_humidity;BME280_pressure;Samples;Min_cycle;Max_cycle;Signal;HPM_P1;HPM_P2
2020/12/14 00:00:21;;;;;;;6.18;2.90;;;3.70;99.90;;;;;;5081903;28;20046;-56
2020/12/14 00:02:46;;;;;;;5.10;2.65;;;3.70;99.90;;;;;;5083181;28;20033;-54
2020/12/14 00:05:14;;;;;;;5.38;2.42;;;3.60;99.90;;;;;;5086584;28;20028;-51
2020/12/14 00:07:40;;;;;;;6.75;3.35;;;3.60;99.90;;;;;;5079332;28;20048;-54
2020/12/14 00:10:06;;;;;;;8.10;3.20;;;3.60;99.90;;;;;;5092134;28;20115;-50
2020/12/14 00:12:32;;;;;;;5.82;3.38;;;3.60;99.90;;;;;;5086977;28;20032;-54
2020/12/14 00:14:58;;;;;;;8.07;3.03;;;3.70;99.90;;;;;;5091801;28;20047;-52
2020/12/14 00:17:24;;;;;;;8.43;3.22;;;3.70;99.90;;;;;;5089420;28;20058;-50
2020/12/14 00:19:50;;;;;;;5.32;2.53;;;3.70;99.90;;;;;;5091927;28;20146;-51
2020/12/14 00:22:15;;;;;;;6.20;3.40;;;3.70;99.90;;;;;;5089973;28;20055;-55
2020/12/14 00:24:41;;;;;;;6.10;3.05;;;3.70;99.90;;;;;;5092416;28;20028;-52
2020/12/14 00:27:07;;;;;;;5.53;2.60;;;3.80;99.90;;;;;;5087147;28;20067;-51
2020/12/14 00:29:33;;;;;;;4.50;2.47;;;4.00;99.90;;;;;;5090594;28;20027;-54
2020/12/14 00:31:59;;;;;;;5.22;2.70;;;4.00;99.90;;;;;;5091288;28;20024;-55
2020/12/14 00:34:25;;;;;;;5.63;2.38;;;3.90;99.90;;;;;;5084156;28;20040;-51
2020/12/14 00:36:51;;;;;;;4.35;2.17;;;3.90;99.90;;;;;;5086279;28;20032;-56
2020/12/14 00:39:17;;;;;;;7.57;3.20;;;3.80;99.90;;;;;;5085330;28;20076;-54
2020/12/14 00:41:43;;;;;;;6.22;3.03;;;3.70;99.90;;;;;;5089964;28;20028;-51
2020/12/14 00:44:08;;;;;;;6.07;3.08;;;3.70;99.90;;;;;;5077169;28;20439;-53
2020/12/14 00:46:34;;;;;;;5.82;2.85;;;3.60;99.90;;;;;;5084709;28;20027;-55
2020/12/14 00:49:00;;;;;;;3.78;2.25;;;3.60;99.90;;;;;;5089025;28;20032;-55
2020/12/14 00:51:30;;;;;;;5.28;2.67;;;3.60;99.90;;;;;;5089395;28;20035;-52
2020/12/14 00:53:56;;;;;;;5.38;2.92;;;3.60;99.90;;;;;;5090062;28;20107;-50
2020/12/14 00:56:22;;;;;;;6.38;3.05;;;3.60;99.90;;;;;;5078917;28;20047;-52
2020/12/14 00:58:48;;;;;;;6.40;3.22;;;3.60;99.90;;;;;;5085099;28;21927;-49
2020/12/14 01:01:16;;;;;;;4.95;2.85;;;3.50;99.90;;;;;;5073030;28;20434;-50
2020/12/14 01:03:42;;;;;;;5.80;2.60;;;3.40;99.90;;;;;;5074607;28;20104;-53
2020/12/14 01:06:08;;;;;;;5.35;2.75;;;3.40;99.90;;;;;;5070958;28;20083;-52
2020/12/14 01:08:34;;;;;;;6.85;3.03;;;3.40;99.90;;;;;;5078872;28;20490;-48
2020/12/14 01:11:01;;;;;;;5.70;3.08;;;3.40;99.90;;;;;;5089182;28;20111;-55
2020/12/14 01:13:27;;;;;;;4.85;2.20;;;3.40;99.90;;;;;;5084040;28;20032;-52
2020/12/14 01:15:53;;;;;;;4.80;2.72;;;3.50;99.90;;;;;;5071399;28;20020;-54
2020/12/14 01:18:19;;;;;;;4.90;2.60;;;3.50;99.90;;;;;;5083610;28;20035;-52
2020/12/14 01:20:48;;;;;;;4.88;2.60;;;3.70;99.90;;;;;;5070702;28;20028;-53
2020/12/14 01:23:14;;;;;;;4.60;2.03;;;3.70;99.90;;;;;;5086771;28;20119;-53
2020/12/14 01:25:39;;;;;;;7.63;2.67;;;3.60;99.90;;;;;;5076251;28;20124;-54
2020/12/14 01:28:08;;;;;;;5.57;2.65;;;3.50;99.90;;;;;;5083669;28;20450;-52
2020/12/14 01:30:34;;;;;;;5.03;2.10;;;3.50;99.90;;;;;;5075850;28;20134;-53
2020/12/14 01:33:01;;;;;;;4.72;2.53;;;3.50;99.90;;;;;;5070357;28;20410;-50
2020/12/14 01:35:27;;;;;;;8.52;2.67;;;3.60;99.90;;;;;;5081818;28;20165;-51
2020/12/14 01:37:53;;;;;;;6.55;2.63;;;3.50;99.90;;;;;;5071697;28;20067;-49
2020/12/14 01:40:20;;;;;;;7.95;2.55;;;3.40;99.90;;;;;;5082694;28;20076;-51
2020/12/14 01:42:48;;;;;;;4.60;2.08;;;3.50;99.90;;;;;;5086528;28;20120;-53
2020/12/14 01:45:16;;;;;;;4.47;2.00;;;3.60;99.90;;;;;;5087075;28;21788;-49
2020/12/14 01:47:43;;;;;;;4.47;1.90;;;3.50;99.90;;;;;;5090269;28;20460;-48
2020/12/14 01:50:11;;;;;;;4.47;2.63;;;3.60;99.90;;;;;;5088663;28;20051;-48
2020/12/14 01:52:41;;;;;;;5.60;2.63;;;3.50;99.90;;;;;;5090115;28;20092;-49
2020/12/14 01:55:08;;;;;;;7.55;2.63;;;3.50;99.90;;;;;;5088808;28;20032;-51
2020/12/14 01:57:37;;;;;;;3.70;1.95;;;3.50;99.90;;;;;;5086974;28;20047;-50
2020/12/14 02:00:05;;;;;;;5.57;2.30;;;3.40;99.90;;;;;;5087113;28;20063;-50
2020/12/14 02:02:31;;;;;;;5.28;2.67;;;3.40;99.90;;;;;;5087797;28;20029;-54
2020/12/14 02:04:57;;;;;;;4.90;2.65;;;3.40;99.90;;;;;;5090203;28;20080;-55
2020/12/14 02:07:24;;;;;;;5.40;1.85;;;3.40;99.90;;;;;;5088560;28;20563;-52
2020/12/14 02:09:53;;;;;;;5.40;2.72;;;3.40;99.90;;;;;;5087446;28;20036;-49
2020/12/14 02:12:23;;;;;;;6.50;2.25;;;3.50;99.90;;;;;;5087333;28;20040;-52
2020/12/14 02:14:54;;;;;;;5.25;2.53;;;3.50;99.90;;;;;;5087197;28;20046;-50
2020/12/14 02:17:20;;;;;;;5.70;2.30;;;3.60;99.90;;;;;;5089618;28;20042;-51
2020/12/14 02:19:47;;;;;;;5.07;1.95;;;3.60;99.90;;;;;;5087802;28;20035;-49
2020/12/14 02:22:15;;;;;;;3.45;2.10;;;3.60;99.90;;;;;;5089972;28;20076;-50
2020/12/14 02:24:45;;;;;;;4.78;1.98;;;3.60;99.90;;;;;;5087172;28;20047;-48
2020/12/14 02:27:14;;;;;;;2.78;1.52;;;3.70;99.90;;;;;;5083422;28;20039;-50
2020/12/14 02:29:43;;;;;;;3.70;1.70;;;3.80;99.90;;;;;;5088082;28;20036;-49
2020/12/14 02:32:13;;;;;;;3.78;1.98;;;3.80;99.90;;;;;;5089562;28;20036;-51
2020/12/14 02:34:40;;;;;;;3.10;1.63;;;3.80;99.90;;;;;;5086865;28;20042;-55
2020/12/14 02:37:10;;;;;;;3.35;1.83;;;3.80;99.90;;;;;;5089519;28;20032;-54
2020/12/14 02:39:37;;;;;;;3.60;1.58;;;3.70;99.90;;;;;;5084014;28;20048;-49
2020/12/14 02:42:18;;;;;;;3.70;1.45;;;3.80;99.90;;;;;;5085366;28;20476;-49
2020/12/14 02:44:44;;;;;;;5.82;2.40;;;3.80;99.90;;;;;;5085426;28;20143;-50
2020/12/14 02:47:11;;;;;;;4.93;2.70;;;3.70;99.90;;;;;;5089339;28;20043;-48
2020/12/14 02:49:37;;;;;;;3.88;2.45;;;3.70;99.90;;;;;;5087711;28;20031;-52
2020/12/14 02:52:04;;;;;;;4.38;2.35;;;3.60;99.90;;;;;;5089052;28;20039;-48
2020/12/14 02:54:30;;;;;;;4.93;2.78;;;3.50;99.90;;;;;;5087539;28;20040;-51
2020/12/14 02:56:56;;;;;;;4.68;2.92;;;3.40;99.90;;;;;;5084096;28;20084;-51
2020/12/14 02:59:23;;;;;;;6.78;2.42;;;3.40;99.90;;;;;;5083854;28;20124;-48
2020/12/14 03:01:49;;;;;;;2.97;1.75;;;3.30;99.90;;;;;;5088892;28;20617;-47
2020/12/14 03:04:16;;;;;;;4.70;2.55;;;3.30;99.90;;;;;;5088090;28;20089;-50
2020/12/14 03:06:47;;;;;;;3.95;2.53;;;3.30;99.90;;;;;;5088749;28;20480;-54
2020/12/14 03:09:14;;;;;;;4.95;2.47;;;3.30;99.90;;;;;;5086403;28;20028;-53
2020/12/14 03:11:41;;;;;;;4.28;1.98;;;3.30;99.90;;;;;;5086012;28;20028;-48
2020/12/14 03:14:07;;;;;;;4.05;2.17;;;3.30;99.90;;;;;;5086952;28;20146;-48
2020/12/14 03:16:41;;;;;;;5.07;2.85;;;3.30;99.90;;;;;;5088565;28;20150;-49
2020/12/14 03:19:07;;;;;;;4.93;2.70;;;3.30;99.90;;;;;;5087495;28;20444;-50
2020/12/14 03:21:33;;;;;;;5.90;2.38;;;3.30;99.90;;;;;;5087201;28;20035;-48
2020/12/14 03:23:59;;;;;;;5.30;2.90;;;3.20;99.90;;;;;;5088492;28;20024;-50
2020/12/14 03:29:00;;;;;;;6.28;2.85;;;3.20;99.90;;;;;;4982775;22;20060;-54
2020/12/14 03:31:26;;;;;;;5.07;2.38;;;3.20;99.90;;;;;;5009149;28;20033;-49
2020/12/14 03:33:53;;;;;;;5.10;2.70;;;3.20;99.90;;;;;;5008989;28;20042;-48
2020/12/14 03:36:20;;;;;;;5.25;2.67;;;3.20;99.90;;;;;;5008752;28;20111;-48
2020/12/14 03:38:51;;;;;;;6.70;2.42;;;3.10;99.90;;;;;;5009015;28;20030;-51
2020/12/14 03:41:17;;;;;;;4.68;2.67;;;3.20;99.90;;;;;;5008979;28;20038;-53
2020/12/14 03:43:43;;;;;;;6.50;2.38;;;3.20;99.90;;;;;;5009212;28;20030;-52
2020/12/14 03:46:23;;;;;;;4.82;2.45;;;3.20;99.90;;;;;;5008867;28;20029;-49
2020/12/14 03:48:53;;;;;;;5.03;2.78;;;3.10;99.90;;;;;;5008808;28;20066;-50
2020/12/14 03:51:19;;;;;;;4.22;2.25;;;3.10;99.90;;;;;;5009053;28;20099;-53
2020/12/14 03:53:45;;;;;;;5.13;2.45;;;3.00;99.90;;;;;;5008822;28;20041;-49
2020/12/14 03:56:11;;;;;;;4.63;2.63;;;3.00;99.90;;;;;;5008751;28;20044;-50
2020/12/14 03:58:37;;;;;;;5.07;2.53;;;3.10;99.90;;;;;;5008678;28;20481;-54
2020/12/14 04:01:04;;;;;;;4.18;2.30;;;3.10;99.90;;;;;;5008687;28;20045;-50
2020/12/14 04:03:30;;;;;;;4.40;2.17;;;3.00;99.90;;;;;;5008583;28;20346;-52
2020/12/14 04:05:56;;;;;;;5.20;2.72;;;3.10;99.90;;;;;;5009256;28;20300;-50
2020/12/14 04:08:22;;;;;;;5.40;3.03;;;3.00;99.90;;;;;;5009027;28;20026;-50
2020/12/14 04:10:48;;;;;;;5.55;2.38;;;3.10;99.90;;;;;;5008814;28;20030;-48
2020/12/14 04:13:13;;;;;;;3.22;1.83;;;3.10;99.90;;;;;;5008697;28;20030;-48
2020/12/14 04:15:39;;;;;;;5.25;2.50;;;3.10;99.90;;;;;;5008556;28;20034;-48
2020/12/14 04:18:05;;;;;;;4.43;2.45;;;3.10;99.90;;;;;;5008434;28;20076;-53
2020/12/14 04:20:31;;;;;;;5.13;2.33;;;3.00;99.90;;;;;;5008751;28;20091;-53
2020/12/14 04:22:57;;;;;;;5.53;2.78;;;3.10;99.90;;;;;;5008624;28;20473;-54
2020/12/14 04:25:23;;;;;;;6.03;3.35;;;3.10;99.90;;;;;;5008541;28;20029;-53
2020/12/14 04:27:49;;;;;;;3.83;2.15;;;3.10;99.90;;;;;;5008497;28;20037;-48
2020/12/14 04:30:15;;;;;;;4.93;2.58;;;3.10;99.90;;;;;;5008440;28;20046;-50
2020/12/14 04:32:41;;;;;;;3.45;2.05;;;3.10;99.90;;;;;;5008366;28;20033;-52
2020/12/14 04:35:07;;;;;;;6.82;2.40;;;3.10;99.90;;;;;;5008858;28;20033;-47
2020/12/14 04:37:33;;;;;;;3.80;1.92;;;3.20;99.90;;;;;;5008615;28;20464;-48
2020/12/14 04:39:59;;;;;;;5.47;1.77;;;3.20;99.90;;;;;;5008562;28;20038;-49
2020/12/14 04:42:25;;;;;;;3.70;2.05;;;3.10;99.90;;;;;;5008753;28;20438;-51
2020/12/14 04:44:54;;;;;;;4.50;2.10;;;3.10;99.90;;;;;;5008352;28;20026;-53
2020/12/14 04:47:21;;;;;;;4.88;2.72;;;3.00;99.90;;;;;;5010691;28;20041;-53
2020/12/14 04:49:48;;;;;;;4.43;2.35;;;2.90;99.90;;;;;;5011893;28;20034;-50
2020/12/14 04:52:17;;;;;;;4.28;2.50;;;2.90;99.90;;;;;;5011807;28;20034;-53
2020/12/14 04:54:47;;;;;;;4.88;2.20;;;2.90;99.90;;;;;;5012158;28;20121;-49
2020/12/14 04:57:14;;;;;;;5.00;2.15;;;2.90;99.90;;;;;;5011704;28;20038;-50
2020/12/14 04:59:39;;;;;;;6.22;2.50;;;2.90;99.90;;;;;;5011495;28;20040;-50
2020/12/14 05:02:07;;;;;;;6.03;3.00;;;2.90;99.90;;;;;;5011846;28;20037;-48
2020/12/14 05:04:34;;;;;;;4.28;2.58;;;2.90;99.90;;;;;;5011817;28;20034;-54
2020/12/14 05:07:00;;;;;;;5.78;2.40;;;2.90;99.90;;;;;;5011493;28;20281;-54
2020/12/14 05:09:26;;;;;;;5.22;2.58;;;2.90;99.90;;;;;;5011805;28;20288;-50
2020/12/14 05:11:52;;;;;;;4.18;2.00;;;2.90;99.90;;;;;;5011483;28;20029;-53
2020/12/14 05:14:20;;;;;;;3.78;2.03;;;2.90;99.90;;;;;;5011278;28;20030;-53
2020/12/14 05:16:46;;;;;;;4.47;2.65;;;2.90;99.90;;;;;;5011375;28;20113;-52
2020/12/14 05:19:18;;;;;;;6.30;2.47;;;2.90;99.90;;;;;;5011470;28;20030;-52
2020/12/14 05:21:54;;;;;;;4.28;2.53;;;2.90;99.90;;;;;;5009164;28;20064;-48
2020/12/14 05:24:22;;;;;;;5.97;2.65;;;2.90;99.90;;;;;;5011315;28;20457;-52
2020/12/14 05:26:48;;;;;;;5.60;2.33;;;2.90;99.90;;;;;;5004359;28;20480;-53
2020/12/14 05:29:23;;;;;;;6.13;2.63;;;2.90;99.90;;;;;;5011118;28;20081;-50
2020/12/14 05:32:11;;;;;;;5.28;2.78;;;2.90;99.90;;;;;;5005132;28;20046;-49
2020/12/14 05:34:38;;;;;;;3.75;1.83;;;2.90;99.90;;;;;;5008910;28;20038;-52
2020/12/14 05:37:06;;;;;;;5.38;2.33;;;2.90;99.90;;;;;;5010344;28;20045;-49
2020/12/14 05:39:35;;;;;;;6.57;2.88;;;2.90;99.90;;;;;;5010224;28;20125;-50
2020/12/14 05:42:16;;;;;;;4.30;2.30;;;2.90;99.90;;;;;;5005418;28;20061;-54
2020/12/14 05:44:47;;;;;;;5.53;2.28;;;2.90;99.90;;;;;;5010888;28;20037;-50
2020/12/14 05:47:29;;;;;;;4.90;2.20;;;2.90;99.90;;;;;;5006828;28;20065;-52
2020/12/14 05:49:57;;;;;;;4.70;1.88;;;2.80;99.90;;;;;;5011378;28;20032;-51
2020/12/14 05:52:27;;;;;;;5.78;2.45;;;2.80;99.90;;;;;;5009413;28;20426;-50
2020/12/14 05:54:57;;;;;;;4.40;1.73;;;2.80;99.90;;;;;;5010878;28;20088;-55
2020/12/14 05:57:32;;;;;;;5.55;1.90;;;2.80;99.90;;;;;;5005646;28;20508;-53
2020/12/14 06:00:00;;;;;;;3.35;2.00;;;2.90;99.90;;;;;;5009243;28;20041;-50
2020/12/14 06:02:27;;;;;;;4.70;1.63;;;2.90;99.90;;;;;;5006418;28;20041;-54
2020/12/14 06:04:57;;;;;;;3.40;1.75;;;2.90;99.90;;;;;;5009609;28;20042;-54
2020/12/14 06:07:30;;;;;;;4.43;1.83;;;2.90;99.90;;;;;;4991065;28;20070;-54
2020/12/14 06:10:16;;;;;;;4.75;2.28;;;2.90;99.90;;;;;;4990832;28;20216;-53
2020/12/14 06:12:46;;;;;;;4.15;1.83;;;2.90;99.90;;;;;;4999195;28;20088;-53
2020/12/14 06:15:14;;;;;;;3.97;2.10;;;2.90;99.90;;;;;;5007994;28;20420;-51
2020/12/14 06:17:41;;;;;;;5.38;2.40;;;3.00;99.90;;;;;;5008803;28;20054;-54
2020/12/14 06:20:23;;;;;;;2.80;1.77;;;3.00;99.90;;;;;;5004729;28;20038;-50
2020/12/14 06:23:04;;;;;;;3.55;1.85;;;3.00;99.90;;;;;;5008693;28;20029;-51
2020/12/14 06:25:31;;;;;;;3.45;1.80;;;3.00;99.90;;;;;;5009453;28;20401;-54
2020/12/14 06:28:17;;;;;;;7.32;1.98;;;3.00;99.90;;;;;;5008601;28;20445;-48
2020/12/14 06:30:52;;;;;;;4.32;1.92;;;2.90;99.90;;;;;;5005699;28;20121;-51
2020/12/14 06:33:49;;;;;;;5.57;2.10;;;3.00;99.90;;;;;;5005247;28;20048;-51
2020/12/14 06:36:20;;;;;;;6.30;1.92;;;3.00;99.90;;;;;;5010066;28;20108;-52
2020/12/14 06:38:47;;;;;;;5.97;2.28;;;3.00;99.90;;;;;;5008530;28;20058;-52
2020/12/14 06:41:21;;;;;;;5.35;2.17;;;3.00;99.90;;;;;;5005473;28;20030;-51
2020/12/14 06:43:48;;;;;;;4.97;2.00;;;3.10;99.90;;;;;;5003971;28;20061;-48
2020/12/14 06:46:27;;;;;;;6.13;2.00;;;3.10;99.90;;;;;;4997016;28;20061;-53
2020/12/14 06:48:54;;;;;;;9.88;3.45;;;3.10;99.90;;;;;;5009577;28;20160;-51
2020/12/14 06:51:20;;;;;;;5.72;2.83;;;3.10;99.90;;;;;;5004608;28;20041;-49
2020/12/14 06:53:52;;;;;;;11.32;2.88;;;3.20;99.90;;;;;;5004291;28;20026;-51
2020/12/14 06:56:27;;;;;;;7.70;3.17;;;3.10;99.90;;;;;;5004482;28;20048;-50
2020/12/14 06:58:54;;;;;;;7.50;2.67;;;3.00;99.90;;;;;;4997227;28;20037;-51
2020/12/14 07:01:40;;;;;;;4.95;2.92;;;3.00;99.90;;;;;;4999565;28;20486;-53
2020/12/14 07:04:28;;;;;;;6.70;2.45;;;2.90;99.90;;;;;;5007276;28;20053;-50
2020/12/14 07:07:06;;;;;;;11.82;2.47;;;2.90;99.90;;;;;;5004863;28;20460;-49
2020/12/14 07:09:34;;;;;;;4.32;2.28;;;2.90;99.90;;;;;;4999528;28;20452;-55
2020/12/14 07:12:09;;;;;;;4.32;2.30;;;2.90;99.90;;;;;;5005524;28;20030;-53
2020/12/14 07:14:44;;;;;;;6.20;3.13;;;3.00;99.90;;;;;;5007400;28;20042;-50
2020/12/14 07:17:30;;;;;;;5.57;2.03;;;3.10;99.90;;;;;;4999962;28;21694;-47
2020/12/14 07:19:58;;;;;;;5.97;3.05;;;3.00;99.90;;;;;;5000640;28;20041;-49
2020/12/14 07:22:24;;;;;;;8.68;4.13;;;3.10;99.90;;;;;;5003074;28;20100;-50
2020/12/14 07:25:01;;;;;;;6.15;3.20;;;3.10;99.90;;;;;;5004285;28;20045;-52
2020/12/14 07:27:28;;;;;;;7.93;3.30;;;3.10;99.90;;;;;;5005856;28;20432;-54
2020/12/14 07:30:08;;;;;;;4.75;2.22;;;3.10;99.90;;;;;;4997687;28;20069;-51
2020/12/14 07:32:35;;;;;;;5.78;1.90;;;3.40;99.90;;;;;;5007675;28;20038;-47
2020/12/14 07:35:02;;;;;;;4.30;1.67;;;3.40;99.90;;;;;;5006023;28;20482;-51
2020/12/14 07:37:28;;;;;;;3.50;1.65;;;3.40;99.90;;;;;;5004989;28;20080;-47
2020/12/14 07:39:54;;;;;;;6.70;2.45;;;3.40;99.90;;;;;;5007650;28;20511;-50
2020/12/14 07:42:33;;;;;;;5.68;1.85;;;3.50;99.90;;;;;;5007157;28;20073;-48
2020/12/14 07:45:10;;;;;;;5.32;1.92;;;3.60;99.90;;;;;;4989373;28;20359;-49
2020/12/14 07:47:36;;;;;;;11.82;2.20;;;3.70;99.90;;;;;;5001838;28;20257;-55
2020/12/14 07:50:12;;;;;;;3.10;1.80;;;3.70;99.90;;;;;;4999897;28;20029;-56
2020/12/14 07:52:38;;;;;;;8.35;2.85;;;3.70;99.90;;;;;;4998364;28;20454;-51
2020/12/14 07:55:07;;;;;;;5.78;2.83;;;3.70;99.90;;;;;;5002935;28;20537;-51
2020/12/14 07:57:37;;;;;;;8.35;2.13;;;3.70;99.90;;;;;;5005345;28;20118;-49
2020/12/14 08:00:12;;;;;;;5.05;2.22;;;3.60;99.90;;;;;;5003756;28;20383;-53
2020/12/14 08:02:39;;;;;;;4.38;2.15;;;3.60;99.90;;;;;;5008220;28;20030;-51
2020/12/14 08:05:10;;;;;;;6.28;1.45;;;3.60;99.90;;;;;;5005896;28;20034;-48
2020/12/14 08:07:53;;;;;;;7.45;1.85;;;3.80;99.90;;;;;;4989034;28;20034;-50
2020/12/14 08:10:21;;;;;;;3.47;1.88;;;3.90;99.90;;;;;;4989042;28;20482;-54
2020/12/14 08:12:48;;;;;;;3.67;1.88;;;3.90;99.90;;;;;;4989419;28;20034;-49
2020/12/14 08:15:17;;;;;;;4.72;2.40;;;4.00;99.90;;;;;;4989377;28;20446;-52
2020/12/14 08:17:43;;;;;;;5.38;2.03;;;4.00;99.90;;;;;;4995238;28;20405;-52
2020/12/14 08:20:31;;;;;;;5.53;2.13;;;4.10;99.90;;;;;;5006537;28;20038;-50
2020/12/14 08:22:58;;;;;;;4.68;2.22;;;4.10;99.90;;;;;;4995346;28;20482;-49
2020/12/14 08:25:29;;;;;;;3.70;1.90;;;4.20;99.90;;;;;;5005486;28;20304;-53
2020/12/14 08:28:04;;;;;;;5.00;2.13;;;4.40;99.90;;;;;;5011781;28;20068;-50
2020/12/14 08:30:33;;;;;;;8.13;3.20;;;4.50;99.90;;;;;;5009671;28;20054;-54
2020/12/14 08:33:13;;;;;;;6.28;3.00;;;4.50;99.90;;;;;;4992735;28;20376;-51
2020/12/14 08:35:41;;;;;;;10.63;2.95;;;4.50;99.90;;;;;;4992577;28;20030;-53
2020/12/14 08:38:16;;;;;;;7.13;2.95;;;4.60;99.90;;;;;;4992833;28;20041;-53
2020/12/14 08:40:55;;;;;;;5.07;1.90;;;4.70;99.90;;;;;;4992271;28;20046;-53
2020/12/14 08:43:23;;;;;;;5.03;1.35;;;4.80;99.90;;;;;;4996564;28;20042;-50
2020/12/14 08:46:02;;;;;;;5.18;2.15;;;5.00;99.90;;;;;;5003298;28;20064;-53
2020/12/14 08:48:39;;;;;;;9.25;2.90;;;5.00;99.90;;;;;;4996738;28;20073;-51
2020/12/14 08:51:12;;;;;;;7.07;4.05;;;5.10;99.90;;;;;;5010300;28;20030;-54
2020/12/14 08:53:39;;;;;;;11.80;2.20;;;5.10;99.90;;;;;;4999246;28;20101;-51
2020/12/14 08:56:14;;;;;;;5.30;2.17;;;5.10;99.90;;;;;;5008564;28;20488;-52
2020/12/14 08:59:04;;;;;;;8.20;1.83;;;5.20;99.90;;;;;;5004011;28;20044;-53
2020/12/14 09:01:32;;;;;;;2.70;1.35;;;5.20;99.90;;;;;;5003610;28;20046;-54
2020/12/14 09:04:03;;;;;;;2.83;1.23;;;5.30;99.90;;;;;;5003943;28;20036;-53
2020/12/14 09:06:31;;;;;;;4.65;1.20;;;5.40;99.90;;;;;;5008494;28;20069;-52
2020/12/14 09:09:13;;;;;;;2.58;1.23;;;5.50;99.90;;;;;;5003413;28;20485;-49
2020/12/14 09:11:42;;;;;;;7.55;1.30;;;5.60;99.90;;;;;;5009337;28;20052;-49
2020/12/14 09:14:08;;;;;;;3.92;1.63;;;5.70;99.90;;;;;;5009945;28;20049;-55
2020/12/14 09:16:36;;;;;;;3.22;1.58;;;5.80;99.90;;;;;;5006910;28;20644;-50
2020/12/14 09:19:03;;;;;;;3.75;1.52;;;5.90;99.90;;;;;;4998832;28;20523;-56
2020/12/14 09:21:31;;;;;;;6.10;1.55;;;5.90;99.90;;;;;;5009600;28;20092;-54
2020/12/14 09:24:15;;;;;;;3.60;1.30;;;6.00;99.90;;;;;;5011283;28;20358;-54
2020/12/14 09:26:42;;;;;;;3.63;1.40;;;6.00;99.90;;;;;;5006123;28;20045;-50
2020/12/14 09:29:09;;;;;;;3.38;1.30;;;6.10;99.90;;;;;;4999421;28;20054;-53
2020/12/14 09:31:35;;;;;;;4.57;1.55;;;6.20;99.80;;;;;;5002891;28;20033;-53
2020/12/14 09:34:01;;;;;;;2.78;1.23;;;6.30;99.90;;;;;;5008168;28;20084;-51
2020/12/14 09:36:27;;;;;;;4.28;1.92;;;6.30;99.70;;;;;;5007081;28;20038;-54
2020/12/14 09:38:56;;;;;;;4.38;1.95;;;6.30;99.90;;;;;;5011401;28;20108;-54
2020/12/14 09:41:30;;;;;;;9.15;1.65;;;6.30;99.40;;;;;;5000355;28;20038;-50
2020/12/14 09:43:56;;;;;;;3.08;1.23;;;6.30;99.50;;;;;;4997863;28;20042;-53
2020/12/14 09:46:29;;;;;;;2.20;0.80;;;6.30;99.90;;;;;;5009544;28;20251;-49
2020/12/14 09:48:57;;;;;;;2.05;0.80;;;6.40;99.50;;;;;;5008590;28;20037;-55
2020/12/14 09:51:23;;;;;;;1.98;1.05;;;6.50;99.90;;;;;;5007234;28;20100;-56
2020/12/14 09:53:49;;;;;;;2.95;0.88;;;6.50;99.80;;;;;;5012239;28;20083;-50
2020/12/14 09:56:15;;;;;;;2.50;1.08;;;6.60;98.70;;;;;;5008482;28;20771;-53
2020/12/14 09:58:41;;;;;;;0.98;0.40;;;6.70;99.10;;;;;;5007078;28;20034;-54
2020/12/14 10:01:07;;;;;;;5.13;0.63;;;6.70;99.00;;;;;;5009567;28;20378;-51
2020/12/14 10:03:33;;;;;;;3.85;0.70;;;6.90;98.20;;;;;;5005878;28;20029;-54
2020/12/14 10:05:59;;;;;;;1.95;0.70;;;7.00;98.30;;;;;;5009641;28;20108;-54
2020/12/14 10:08:25;;;;;;;4.10;0.70;;;7.00;98.80;;;;;;5009512;28;20463;-55
2020/12/14 10:10:54;;;;;;;1.67;0.60;;;7.00;99.00;;;;;;5008351;28;20040;-53
2020/12/14 10:13:20;;;;;;;2.70;1.20;;;7.00;98.10;;;;;;5008115;28;20038;-53
2020/12/14 10:15:46;;;;;;;5.90;1.80;;;7.10;98.30;;;;;;5008980;28;20026;-52
2020/12/14 10:18:12;;;;;;;3.15;1.02;;;7.20;97.80;;;;;;5009821;28;20025;-54
2020/12/14 10:20:38;;;;;;;3.63;0.80;;;7.30;97.60;;;;;;5010759;28;20112;-53
2020/12/14 10:23:04;;;;;;;2.40;1.00;;;7.30;97.60;;;;;;5010594;28;20025;-51
2020/12/14 10:25:30;;;;;;;1.75;0.75;;;7.30;97.90;;;;;;5009915;28;20095;-56
2020/12/14 10:27:55;;;;;;;2.83;0.70;;;7.30;98.10;;;;;;5009900;28;20033;-55
2020/12/14 10:30:21;;;;;;;2.70;0.90;;;7.30;97.60;;;;;;4999153;28;20079;-51
2020/12/14 10:32:47;;;;;;;1.40;0.60;;;7.40;98.20;;;;;;5004820;28;20040;-52
2020/12/14 10:35:13;;;;;;;2.67;0.70;;;7.40;97.70;;;;;;5002818;28;20042;-53
2020/12/14 10:37:39;;;;;;;1.67;0.40;;;7.50;98.10;;;;;;5010097;28;20105;-55
2020/12/14 10:40:06;;;;;;;1.67;0.60;;;7.50;98.00;;;;;;5006152;28;20482;-55
2020/12/14 10:42:33;;;;;;;1.45;0.50;;;7.50;98.20;;;;;;5004450;28;20331;-55
2020/12/14 10:45:00;;;;;;;3.70;1.48;;;7.60;96.90;;;;;;5003611;28;20480;-54
2020/12/14 10:47:27;;;;;;;2.78;0.50;;;7.80;96.30;;;;;;5005744;28;20121;-55
2020/12/14 10:49:52;;;;;;;6.22;0.70;;;7.90;97.30;;;;;;5006324;28;20034;-54
2020/12/14 10:52:18;;;;;;;1.35;0.50;;;7.80;97.20;;;;;;5008472;28;20037;-53
2020/12/14 10:54:44;;;;;;;1.23;0.50;;;7.80;98.00;;;;;;4992037;28;20043;-53
2020/12/14 10:57:10;;;;;;;2.90;0.60;;;7.80;96.40;;;;;;4990091;28;20042;-53
2020/12/14 10:59:35;;;;;;;1.88;0.60;;;8.10;96.10;;;;;;4990662;28;20413;-54
2020/12/14 11:02:01;;;;;;;1.85;0.77;;;8.20;95.60;;;;;;5002144;28;20038;-53
2020/12/14 11:04:27;;;;;;;1.58;0.60;;;8.40;96.30;;;;;;5004443;28;20034;-56
2020/12/14 11:06:52;;;;;;;2.83;0.50;;;8.30;95.70;;;;;;4997285;28;20194;-50
2020/12/14 11:09:18;;;;;;;1.83;0.40;;;8.40;95.00;;;;;;4998775;28;20033;-52
2020/12/14 11:11:44;;;;;;;1.15;0.60;;;8.50;95.30;;;;;;5004048;28;20033;-56
2020/12/14 11:14:10;;;;;;;2.03;0.50;;;8.40;96.40;;;;;;5005449;28;20034;-55
2020/12/14 11:16:39;;;;;;;1.63;0.60;;;8.40;95.70;;;;;;5004122;28;20034;-54
2020/12/14 11:19:05;;;;;;;2.22;0.57;;;8.50;95.10;;;;;;4999808;28;20030;-54
2020/12/14 11:21:31;;;;;;;10.27;1.63;;;8.70;95.70;;;;;;4998984;28;20096;-55
2020/12/14 11:23:57;;;;;;;12.95;4.65;;;8.80;95.50;;;;;;4995157;28;20037;-54
2020/12/14 11:26:23;;;;;;;6.35;2.75;;;8.80;94.70;;;;;;4990936;28;20117;-54
2020/12/14 11:28:49;;;;;;;3.17;1.20;;;8.80;94.80;;;;;;4995734;28;20644;-55
2020/12/14 11:31:18;;;;;;;3.38;1.48;;;8.70;94.60;;;;;;5001508;28;20032;-54
2020/12/14 11:33:44;;;;;;;1.75;0.70;;;8.80;94.00;;;;;;5007557;28;20438;-55
2020/12/14 11:36:10;;;;;;;3.78;0.60;;;9.00;94.50;;;;;;5003512;28;20042;-53
2020/12/14 11:38:36;;;;;;;1.63;0.60;;;9.00;95.20;;;;;;4994717;28;20040;-48
2020/12/14 11:41:01;;;;;;;2.10;0.52;;;8.90;95.40;;;;;;4998528;28;20042;-52
2020/12/14 11:43:27;;;;;;;2.30;0.70;;;9.10;94.00;;;;;;4989632;28;20041;-50
2020/12/14 11:45:53;;;;;;;3.58;0.47;;;9.20;94.00;;;;;;4999249;28;20047;-53
2020/12/14 11:48:19;;;;;;;4.22;0.50;;;9.40;92.90;;;;;;5003220;28;20089;-54
2020/12/14 11:50:44;;;;;;;1.70;0.70;;;9.30;93.10;;;;;;5006954;28;20140;-50
2020/12/14 11:53:11;;;;;;;4.30;0.60;;;9.20;93.70;;;;;;5007704;28;20052;-50
2020/12/14 11:55:37;;;;;;;1.58;0.40;;;9.10;95.10;;;;;;5009270;28;20034;-52
2020/12/14 11:58:03;;;;;;;2.25;0.68;;;9.20;93.00;;;;;;5005159;28;20099;-55
2020/12/14 12:00:29;;;;;;;2.65;0.40;;;9.20;95.20;;;;;;5010840;28;20053;-54
2020/12/14 12:02:55;;;;;;;1.33;0.40;;;9.20;94.30;;;;;;5011354;28;20362;-49
2020/12/14 12:05:21;;;;;;;1.27;0.40;;;9.20;94.30;;;;;;5006102;28;20033;-50
2020/12/14 12:07:47;;;;;;;2.75;0.50;;;9.30;94.80;;;;;;4993067;28;20430;-52
2020/12/14 12:10:13;;;;;;;2.15;0.55;;;9.40;93.50;;;;;;5000531;28;20029;-52
2020/12/14 12:12:39;;;;;;;1.92;0.47;;;9.50;93.00;;;;;;5012268;28;20108;-50
2020/12/14 12:15:05;;;;;;;1.58;0.50;;;9.40;94.10;;;;;;5008915;28;20061;-50
2020/12/14 12:17:31;;;;;;;1.10;0.40;;;9.40;93.20;;;;;;5003857;28;20548;-53
2020/12/14 12:19:57;;;;;;;1.20;0.40;;;9.40;93.10;;;;;;5003778;28;20042;-53
2020/12/14 12:22:23;;;;;;;2.05;0.50;;;9.50;92.60;;;;;;5004258;28;20079;-54
2020/12/14 12:24:49;;;;;;;2.78;0.50;;;9.50;93.80;;;;;;5006294;28;20034;-57
2020/12/14 12:27:15;;;;;;;1.60;0.50;;;9.60;93.10;;;;;;5012326;28;20037;-51
2020/12/14 12:29:40;;;;;;;4.82;0.70;;;9.60;92.50;;;;;;5011605;28;20062;-53
2020/12/14 12:32:06;;;;;;;2.03;0.50;;;9.70;92.10;;;;;;5011097;28;20129;-52
2020/12/14 12:34:33;;;;;;;2.90;0.60;;;9.80;91.00;;;;;;5012205;28;20497;-54
2020/12/14 12:36:59;;;;;;;2.55;0.50;;;9.80;91.20;;;;;;5005228;28;20109;-54
2020/12/14 12:39:26;;;;;;;4.45;1.13;;;9.80;91.00;;;;;;5012273;28;20478;-57
2020/12/14 12:41:53;;;;;;;4.88;0.73;;;9.90;91.00;;;;;;5012192;28;20036;-52
2020/12/14 12:44:20;;;;;;;2.78;0.82;;;10.00;90.80;;;;;;5008810;28;20029;-55
2020/12/14 12:46:46;;;;;;;3.25;0.80;;;9.90;91.00;;;;;;5007134;28;20026;-50
2020/12/14 12:49:12;;;;;;;3.53;0.65;;;9.90;92.40;;;;;;5025133;28;20112;-52
2020/12/14 12:51:43;;;;;;;2.63;0.90;;;9.80;93.30;;;;;;5008176;28;20032;-53
2020/12/14 12:54:08;;;;;;;1.85;0.70;;;9.70;91.90;;;;;;5011422;28;20041;-54
2020/12/14 12:56:34;;;;;;;4.30;1.90;;;9.80;90.60;;;;;;5011374;28;20038;-53
2020/12/14 12:59:00;;;;;;;4.25;0.80;;;9.80;90.70;;;;;;5001197;28;20517;-54
2020/12/14 13:01:26;;;;;;;2.92;0.73;;;9.90;91.10;;;;;;5000575;28;20033;-57
2020/12/14 13:03:52;;;;;;;2.17;0.98;;;9.90;90.80;;;;;;4993643;28;20182;-54
2020/12/14 13:06:18;;;;;;;1.27;0.40;;;9.90;91.50;;;;;;5007299;28;20273;-53